Waco Regional Airport
KACT : now visible

Airfield :











YOU CAN JOIN US ON...

 
LOGIN :

Register | Disclaimer

   EN    FR    IT 

 









Legend :    VFR   Marginal VFR   IFR   Intensive IFR   Very Intensive IFR
Visi :
Ceiling :
>= 8 km
>= 3000ft
5 to 8 km
1000 to 3000 ft
1500m to 5 km
500 to 1000 ft
800 to 1500m
200 to 500 ft
< 800m
< 200 ft
Symbols :   Thunderstorms  Fog  Heavy snow  Heavy precipitations  Wind > 20 kt






- Airport Elevation : 516 ft
- IATA code : ACT


KACT - Waco Regional

CURRENT METAR :
  • 251751Z 13009KT 10SM BKN015 BKN024 OVC032 20/15 A2993 RMK AO2 SLP130 T02000150 10200 20117 58017

EXPIRED METARs :
  • 251714Z 15009KT 10SM SCT013 OVC025 19/14 A2994 RMK AO2 T01890144
  • 251651Z 13008KT 10SM OVC013 18/14 A2995 RMK AO2 SLP139 T01830139
  • 251630Z 17010KT 10SM BKN014 OVC019 18/14 A2997 RMK AO2 T01830139
  • 251551Z 17010KT 10SM OVC027 18/13 A2998 RMK AO2 SLP147 T01780133

TAF KACT
Valid from the 25 at 18:00 until the 26 at 18:00 UTC


251720Z 2518/2618 13009KT P6SM BKN015 BKN025
FM260300 12010KT 5SM BR OVC011
FM260600 10011KT 3SM -DZ BR OVC007
KZFW FIR / North America



MET'MAP, your aeronautical weather chart ! - Copyright ORBIFLY December 2007 - Disclaimer

ORBIFLY MET'MAP TEAM :

Programming & Development : Alexandra Zaïnal
Concept & original design : Baudouin d'Aumeries
Assistance for programming : Marc-Olivier Méhu
Technical & hardware support : Manuel Goepfert

Contact : metmap@orbifly.com




SOURCES & CREDITS :

   NOAA       Earth
Advisory